< < Back
Terminal Aerodrome Forecast


Current Version              Previous Versions:   1  2  3  4  5  6  7  8  9  

Terminal Aerodrome Forecast

893
FTUS42 KGSP 262340
TAFAVL
TAF
KAVL 262340Z 2700/2724 36005KT P6SM SCT050 BKN100
     FM270700 31009KT P6SM SCT100 BKN250
     FM271500 32013G20KT P6SM BKN040
     FM272100 32013KT P6SM SCT250=

Latest METAR

942
SAUS70 KWBC 260900 RRX
MTRAVL
METAR KAVL 270854Z AUTO 34007KT 10SM FEW041 SCT055 01/M01 A2995 RMK AO2
SLP143 60000 T00061011 55013


USA.gov is the U.S. government's official web portal to all federal, state and local government web resources and services.